createdAt,value
2022-09-23T00:00:17.714Z,97047.47
2022-09-23T00:01:19.744Z,97047.47
2022-09-23T00:02:22.114Z,97045.88
2022-09-23T00:03:23.686Z,97041.97
2022-09-23T00:04:25.906Z,97047.66
2022-09-23T00:05:28.840Z,97045.66
2022-09-23T00:06:30.380Z,97050.09
2022-09-23T00:07:31.965Z,97047.03
2022-09-23T00:08:33.867Z,97045.81
2022-09-23T00:09:35.401Z,97046.91
2022-09-23T00:10:39.303Z,97049.84
2022-09-23T00:11:40.840Z,97042.91
2022-09-23T00:12:42.355Z,97043.84
2022-09-23T00:13:46.400Z,97041.88
2022-09-23T00:14:47.998Z,97040.78
2022-09-23T00:15:50.092Z,97039.59
2022-09-23T00:16:51.678Z,97043.31
2022-09-23T00:17:53.256Z,97035.97
2022-09-23T00:18:54.911Z,97036.25
2022-09-23T00:19:56.480Z,97040.16
2022-09-23T00:20:58.087Z,97033.56
2022-09-23T00:21:59.595Z,97037.13
2022-09-23T00:23:01.479Z,97033.56
2022-09-23T00:24:03.036Z,97031.63
2022-09-23T00:25:06.487Z,97031.84
2022-09-23T00:26:10.089Z,97026.94
2022-09-23T00:27:11.623Z,97023.56
2022-09-23T00:28:13.133Z,97029.84
2022-09-23T00:29:16.046Z,97036.13
2022-09-23T00:30:18.523Z,97026.28
2022-09-23T00:31:23.405Z,97035.72
2022-09-23T00:32:25.091Z,97032.81
2022-09-23T00:33:26.661Z,97037.50
2022-09-23T00:34:28.258Z,97032.59
2022-09-23T00:35:29.833Z,97034.59
2022-09-23T00:36:32.407Z,97031.66
2022-09-23T00:37:34.163Z,97032.09
2022-09-23T00:38:35.693Z,97031.84
2022-09-23T00:39:37.209Z,97030.25
2022-09-23T00:40:43.703Z,97034.09
2022-09-23T00:41:45.296Z,97030.94
2022-09-23T00:42:51.308Z,97039.88
2022-09-23T00:43:56.391Z,97030.56
2022-09-23T00:44:59.802Z,97029.69
2022-09-23T00:46:01.484Z,97036.56
2022-09-23T00:47:03.391Z,97035.22
2022-09-23T00:48:06.386Z,97037.03
2022-09-23T00:49:23.560Z,97035.34
2022-09-23T00:50:30.723Z,97033.91
2022-09-23T00:51:37.814Z,97036.72
2022-09-23T00:52:39.948Z,97032.13
2022-09-23T00:53:42.059Z,97033.69
2022-09-23T00:54:46.231Z,97039.06
2022-09-23T00:55:54.743Z,97035.28
2022-09-23T00:56:57.777Z,97029.91
2022-09-23T00:58:02.831Z,97028.31
2022-09-23T00:59:05.223Z,97037.03
2022-09-23T01:00:07.778Z,97031.22
2022-09-23T01:01:09.638Z,97030.34
2022-09-23T01:02:14.329Z,97023.56
2022-09-23T01:03:16.620Z,97020.66
2022-09-23T01:04:19.279Z,97027.72
2022-09-23T01:05:21.480Z,97027.88
2022-09-23T01:06:23.207Z,97026.41
2022-09-23T01:07:24.756Z,97034.56
2022-09-23T01:08:27.859Z,97035.50
2022-09-23T01:09:29.445Z,97034.59
2022-09-23T01:10:41.319Z,97029.22
2022-09-23T01:12:01.581Z,97035.09
2022-09-23T01:13:03.000Z,97035.50
2022-09-23T01:14:07.375Z,97035.50
2022-09-23T01:15:11.911Z,97033.50
2022-09-23T01:16:18.551Z,97029.44
2022-09-23T01:17:35.067Z,97030.44
2022-09-23T01:18:53.211Z,97032.81
2022-09-23T01:20:13.095Z,97030.13
2022-09-23T01:21:43.241Z,97032.81
2022-09-23T01:23:16.637Z,97033.03
2022-09-23T01:24:45.631Z,97037.78
2022-09-23T01:26:08.377Z,97033.03
2022-09-23T01:27:30.439Z,97036.50
2022-09-23T01:29:27.466Z,97036.59
2022-09-23T01:30:51.491Z,97039.50
2022-09-23T01:32:13.897Z,97041.50
2022-09-23T01:33:24.496Z,97043.69
2022-09-23T01:34:42.441Z,97040.09
2022-09-23T01:36:00.095Z,97043.47
2022-09-23T01:37:34.055Z,97043.00
2022-09-23T01:38:59.210Z,97037.19
2022-09-23T01:40:07.049Z,97035.72
2022-09-23T01:41:31.308Z,97042.22
2022-09-23T01:42:41.573Z,97038.75
2022-09-23T01:43:54.832Z,97042.56
2022-09-23T01:45:15.448Z,97041.41
2022-09-23T01:46:24.844Z,97049.72
2022-09-23T01:47:39.855Z,97042.41
2022-09-23T01:48:55.346Z,97042.66
2022-09-23T01:50:25.039Z,97042.53
2022-09-23T01:51:35.722Z,97036.34
2022-09-23T01:52:44.618Z,97044.31
2022-09-23T01:54:09.767Z,97043.31
2022-09-23T01:55:19.127Z,97043.16
2022-09-23T01:56:26.140Z,97047.56
2022-09-23T01:57:37.378Z,97052.44
2022-09-23T01:58:49.787Z,97047.91
2022-09-23T01:59:57.727Z,97054.97
2022-09-23T02:01:02.816Z,97053.50
2022-09-23T02:02:15.334Z,97053.81
2022-09-23T02:03:26.873Z,97057.41
2022-09-23T02:04:39.539Z,97062.94
2022-09-23T02:05:58.625Z,97057.00
2022-09-23T02:07:08.090Z,97057.81
2022-09-23T02:08:25.776Z,97052.94
2022-09-23T02:09:35.137Z,97054.53
2022-09-23T02:10:41.036Z,97054.06
2022-09-23T02:11:48.159Z,97049.69
2022-09-23T02:12:53.460Z,97052.50
2022-09-23T02:13:55.105Z,97053.91
2022-09-23T02:15:00.955Z,97057.81
2022-09-23T02:16:10.887Z,97056.06
2022-09-23T02:17:18.335Z,97068.97
2022-09-23T02:18:24.403Z,97059.22
2022-09-23T02:19:43.653Z,97069.28
2022-09-23T02:20:47.496Z,97056.34
2022-09-23T02:22:08.449Z,97065.00
2022-09-23T02:23:17.052Z,97059.16
2022-09-23T02:24:29.973Z,97059.47
2022-09-23T02:25:40.769Z,97065.75
2022-09-23T02:27:03.942Z,97062.22
2022-09-23T02:28:27.353Z,97061.66
2022-09-23T02:29:50.352Z,97065.84
2022-09-23T02:31:08.749Z,97067.75
2022-09-23T02:32:28.968Z,97063.69
2022-09-23T02:33:37.149Z,97065.09
2022-09-23T02:35:10.147Z,97065.88
2022-09-23T02:36:50.770Z,97072.97
2022-09-23T02:38:25.960Z,97071.88
2022-09-23T02:39:37.840Z,97071.88
2022-09-23T02:41:11.540Z,97072.22
2022-09-23T02:42:20.288Z,97066.88
2022-09-23T02:43:35.481Z,97071.59
2022-09-23T02:44:37.073Z,97069.22
2022-09-23T02:45:39.186Z,97070.03
2022-09-23T02:46:43.653Z,97071.91
2022-09-23T02:47:52.858Z,97075.34
2022-09-23T02:49:00.924Z,97070.28
2022-09-23T02:50:02.804Z,97067.91
2022-09-23T02:51:04.913Z,97072.16
2022-09-23T02:52:07.675Z,97076.72
2022-09-23T02:53:10.656Z,97078.91
2022-09-23T02:54:16.847Z,97072.97
2022-09-23T02:55:22.224Z,97073.28
2022-09-23T02:56:24.581Z,97081.78
2022-09-23T02:57:26.478Z,97079.09
2022-09-23T02:58:29.183Z,97072.69
2022-09-23T02:59:31.889Z,97086.50
2022-09-23T03:00:45.175Z,97082.44
2022-09-23T03:02:14.472Z,97081.97
2022-09-23T03:03:29.961Z,97073.94
2022-09-23T03:04:57.029Z,97086.19
2022-09-23T03:06:05.054Z,97084.63
2022-09-23T03:07:21.670Z,97094.38
2022-09-23T03:08:40.463Z,97088.41
2022-09-23T03:09:52.776Z,97084.31
2022-09-23T03:11:05.249Z,97085.75
2022-09-23T03:12:36.135Z,97087.78
2022-09-23T03:13:58.748Z,97091.38
2022-09-23T03:15:22.774Z,97089.94
2022-09-23T03:16:40.235Z,97090.59
2022-09-23T03:18:31.594Z,97089.59
2022-09-23T03:19:54.041Z,97090.25
2022-09-23T03:21:03.197Z,97091.53
2022-09-23T03:22:13.027Z,97092.00
2022-09-23T03:23:18.924Z,97092.81
2022-09-23T03:24:23.906Z,97093.59
2022-09-23T03:25:28.129Z,97088.56
2022-09-23T03:26:36.549Z,97094.38
2022-09-23T03:27:42.489Z,97096.44
2022-09-23T03:28:45.661Z,97095.34
2022-09-23T03:29:49.982Z,97093.94
2022-09-23T03:30:53.215Z,97091.72
2022-09-23T03:31:57.246Z,97096.91
2022-09-23T03:33:00.954Z,97097.69
2022-09-23T03:34:09.756Z,97094.53
2022-09-23T03:35:13.124Z,97097.84
2022-09-23T03:36:37.145Z,97102.41
2022-09-23T03:38:11.250Z,97095.63
2022-09-23T03:39:17.941Z,97094.03
2022-09-23T03:40:28.088Z,97093.72
2022-09-23T03:41:37.244Z,97096.69
2022-09-23T03:42:39.691Z,97099.38
2022-09-23T03:43:41.215Z,97088.53
2022-09-23T03:44:45.453Z,97099.44
2022-09-23T03:45:47.474Z,97102.56
2022-09-23T03:46:52.166Z,97097.38
2022-09-23T03:47:53.687Z,97097.44
2022-09-23T03:49:27.330Z,97102.59
2022-09-23T03:50:29.103Z,97104.94
2022-09-23T03:51:30.620Z,97100.97
2022-09-23T03:52:32.393Z,97108.16
2022-09-23T03:53:33.932Z,97091.47
2022-09-23T03:54:35.585Z,97106.50
2022-09-23T03:55:39.394Z,97104.59
2022-09-23T03:56:41.040Z,97108.97
2022-09-23T03:57:43.525Z,97108.47
2022-09-23T03:58:46.494Z,97107.13
2022-09-23T03:59:50.535Z,97112.69
2022-09-23T04:00:54.724Z,97105.34
2022-09-23T04:01:59.553Z,97103.91
2022-09-23T04:03:01.177Z,97113.78
2022-09-23T04:04:02.721Z,97105.47
2022-09-23T04:05:05.217Z,97103.56
2022-09-23T04:06:06.882Z,97100.63
2022-09-23T04:07:08.994Z,97108.84
2022-09-23T04:08:10.520Z,97106.19
2022-09-23T04:09:12.103Z,97108.56
2022-09-23T04:10:13.608Z,97105.75
2022-09-23T04:11:15.119Z,97110.97
2022-09-23T04:12:17.254Z,97110.38
2022-09-23T04:13:18.791Z,97120.47
2022-09-23T04:14:21.762Z,97113.69
2022-09-23T04:15:23.361Z,97116.06
2022-09-23T04:16:25.504Z,97109.31
2022-09-23T04:17:27.213Z,97107.47
2022-09-23T04:18:28.729Z,97107.16
2022-09-23T04:19:30.320Z,97098.31
2022-09-23T04:20:31.856Z,97101.94
2022-09-23T04:21:33.388Z,97104.75
2022-09-23T04:22:35.102Z,97104.13
2022-09-23T04:23:36.646Z,97102.06
2022-09-23T04:24:38.165Z,97097.66
2022-09-23T04:25:49.219Z,97105.53
2022-09-23T04:26:53.383Z,97101.09
2022-09-23T04:27:54.937Z,97095.91
2022-09-23T04:28:56.798Z,97098.25
2022-09-23T04:29:58.332Z,97101.41
2022-09-23T04:31:03.604Z,97094.97
2022-09-23T04:32:05.267Z,97096.50
2022-09-23T04:33:06.875Z,97101.25
2022-09-23T04:34:09.462Z,97107.38
2022-09-23T04:35:11.075Z,97099.00
2022-09-23T04:36:12.687Z,97101.38
2022-09-23T04:37:14.339Z,97104.84
2022-09-23T04:38:15.860Z,97107.38
2022-09-23T04:39:18.257Z,97108.78
2022-09-23T04:40:19.808Z,97110.84
2022-09-23T04:41:21.508Z,97107.53
2022-09-23T04:42:23.381Z,97104.69
2022-09-23T04:43:24.918Z,97110.50
2022-09-23T04:44:28.134Z,97109.06
2022-09-23T04:45:30.437Z,97114.59
2022-09-23T04:46:32.040Z,97108.59
2022-09-23T04:47:33.666Z,97104.81
2022-09-23T04:48:39.461Z,97115.53
2022-09-23T04:49:41.164Z,97112.50
2022-09-23T04:50:42.891Z,97112.66
2022-09-23T04:51:45.029Z,97120.38
2022-09-23T04:52:46.819Z,97120.53
2022-09-23T04:53:50.701Z,97111.41
2022-09-23T04:54:52.268Z,97112.31
2022-09-23T04:55:53.970Z,97120.97
2022-09-23T04:56:55.568Z,97118.47
2022-09-23T04:57:57.191Z,97121.28
2022-09-23T04:58:58.740Z,97122.69
2022-09-23T05:00:01.132Z,97120.63
2022-09-23T05:01:33.483Z,97119.16
2022-09-23T05:02:35.718Z,97120.91
2022-09-23T05:03:37.395Z,97123.41
2022-09-23T05:04:39.330Z,97119.91
2022-09-23T05:05:40.874Z,97122.56
2022-09-23T05:06:45.160Z,97121.75
2022-09-23T05:07:48.519Z,97122.91
2022-09-23T05:08:54.443Z,97111.34
2022-09-23T05:09:56.035Z,97118.88
2022-09-23T05:10:58.946Z,97127.28
2022-09-23T05:12:00.565Z,97117.97
2022-09-23T05:13:02.053Z,97126.81
2022-09-23T05:14:03.744Z,97120.72
2022-09-23T05:15:05.905Z,97129.25
2022-09-23T05:16:11.077Z,97118.06
2022-09-23T05:17:12.678Z,97121.81
2022-09-23T05:18:17.844Z,97122.56
2022-09-23T05:19:21.855Z,97122.19
2022-09-23T05:20:23.431Z,97124.47
2022-09-23T05:21:27.507Z,97127.69
2022-09-23T05:22:29.995Z,97127.59
2022-09-23T05:23:31.557Z,97125.13
2022-09-23T05:24:33.130Z,97122.63
2022-09-23T05:25:38.211Z,97125.38
2022-09-23T05:26:40.066Z,97124.75
2022-09-23T05:27:42.334Z,97119.38
2022-09-23T05:28:44.213Z,97121.81
2022-09-23T05:29:46.326Z,97119.31
2022-09-23T05:30:47.873Z,97118.91
2022-09-23T05:31:49.509Z,97125.25
2022-09-23T05:32:51.215Z,97118.25
2022-09-23T05:33:57.284Z,97124.00
2022-09-23T05:34:58.926Z,97120.19
2022-09-23T05:36:01.311Z,97120.09
2022-09-23T05:37:03.340Z,97117.53
2022-09-23T05:38:04.974Z,97120.44
2022-09-23T05:39:07.925Z,97116.06
2022-09-23T05:40:10.039Z,97120.31
2022-09-23T05:41:13.408Z,97121.75
2022-09-23T05:42:18.178Z,97117.03
2022-09-23T05:43:19.698Z,97119.94
2022-09-23T05:44:21.250Z,97120.13
2022-09-23T05:45:26.808Z,97118.56
2022-09-23T05:46:30.733Z,97113.63
2022-09-23T05:47:32.354Z,97116.06
2022-09-23T05:48:35.572Z,97113.63
2022-09-23T05:49:58.211Z,97111.81
2022-09-23T05:50:59.585Z,97112.94
2022-09-23T05:52:02.689Z,97118.94
2022-09-23T05:53:04.258Z,97115.03
2022-09-23T05:54:06.188Z,97115.69
2022-09-23T05:55:08.281Z,97120.78
2022-09-23T05:56:09.811Z,97113.34
2022-09-23T05:57:11.995Z,97118.91
2022-09-23T05:58:13.890Z,97119.53
2022-09-23T05:59:15.420Z,97118.16
2022-09-23T06:00:17.540Z,97114.59
2022-09-23T06:01:21.593Z,97120.50
2022-09-23T06:02:23.472Z,97115.78
2022-09-23T06:03:26.211Z,97118.56
2022-09-23T06:04:27.871Z,97124.31
2022-09-23T06:05:31.001Z,97120.22
2022-09-23T06:06:36.045Z,97113.84
2022-09-23T06:07:38.143Z,97127.38
2022-09-23T06:08:39.689Z,97124.69
2022-09-23T06:09:42.293Z,97124.59
2022-09-23T06:10:47.875Z,97122.91
2022-09-23T06:11:51.243Z,97130.19
2022-09-23T06:12:52.765Z,97130.28
2022-09-23T06:13:55.748Z,97130.72
2022-09-23T06:14:57.678Z,97125.09
2022-09-23T06:15:59.380Z,97123.84
2022-09-23T06:17:00.998Z,97131.34
2022-09-23T06:18:02.973Z,97130.44
2022-09-23T06:19:07.599Z,97124.50
2022-09-23T06:20:09.650Z,97125.47
2022-09-23T06:21:17.024Z,97131.25
2022-09-23T06:22:18.826Z,97127.44
2022-09-23T06:23:23.414Z,97124.50
2022-09-23T06:24:31.120Z,97119.28
2022-09-23T06:25:34.050Z,97124.81
2022-09-23T06:26:37.747Z,97124.88
2022-09-23T06:27:39.292Z,97122.22
2022-09-23T06:28:43.002Z,97135.78
2022-09-23T06:29:44.566Z,97129.03
2022-09-23T06:30:46.130Z,97126.97
2022-09-23T06:31:49.809Z,97128.78
2022-09-23T06:32:52.191Z,97127.53
2022-09-23T06:34:05.528Z,97132.41
2022-09-23T06:35:23.446Z,97125.28
2022-09-23T06:36:40.075Z,97129.50
2022-09-23T06:37:44.964Z,97128.84
2022-09-23T06:38:49.292Z,97131.84
2022-09-23T06:39:50.843Z,97123.75
2022-09-23T06:40:54.590Z,97123.94
2022-09-23T06:41:56.216Z,97126.09
2022-09-23T06:42:59.271Z,97120.50
2022-09-23T06:44:01.019Z,97127.09
2022-09-23T06:45:02.712Z,97124.53
2022-09-23T06:46:06.270Z,97117.66
2022-09-23T06:47:07.874Z,97121.38
2022-09-23T06:48:09.974Z,97124.44
2022-09-23T06:49:12.187Z,97119.81
2022-09-23T06:50:13.723Z,97119.28
2022-09-23T06:51:19.253Z,97126.50
2022-09-23T06:52:21.199Z,97123.56
2022-09-23T06:53:25.618Z,97123.56
2022-09-23T06:54:28.968Z,97123.47
2022-09-23T06:55:31.017Z,97135.72
2022-09-23T06:56:37.978Z,97125.81
2022-09-23T06:57:40.322Z,97127.91
2022-09-23T06:58:41.912Z,97127.41
2022-09-23T06:59:43.439Z,97124.50
2022-09-23T07:00:45.306Z,97129.81
2022-09-23T07:01:48.407Z,97131.06
2022-09-23T07:02:50.204Z,97128.72
2022-09-23T07:03:51.973Z,97128.41
2022-09-23T07:04:57.086Z,97131.84
2022-09-23T07:05:59.826Z,97126.78
2022-09-23T07:07:01.349Z,97129.19
2022-09-23T07:08:03.365Z,97135.28
2022-09-23T07:09:07.414Z,97127.19
2022-09-23T07:10:09.821Z,97133.22
2022-09-23T07:11:13.140Z,97136.03
2022-09-23T07:12:14.796Z,97129.13
2022-09-23T07:13:16.535Z,97128.00
2022-09-23T07:14:18.073Z,97128.19
2022-09-23T07:15:19.585Z,97134.72
2022-09-23T07:16:21.571Z,97131.91
2022-09-23T07:17:24.527Z,97125.59
2022-09-23T07:18:27.194Z,97128.19
2022-09-23T07:19:28.745Z,97125.78
2022-09-23T07:20:30.292Z,97128.19
2022-09-23T07:21:32.051Z,97128.13
2022-09-23T07:22:33.647Z,97125.31
2022-09-23T07:23:35.287Z,97128.72
2022-09-23T07:24:37.435Z,97131.16
2022-09-23T07:25:41.403Z,97126.00
2022-09-23T07:26:45.691Z,97129.16
2022-09-23T07:27:48.578Z,97131.38
2022-09-23T07:28:55.052Z,97132.16
2022-09-23T07:29:57.258Z,97131.78
2022-09-23T07:31:07.715Z,97122.16
2022-09-23T07:32:14.117Z,97124.63
2022-09-23T07:33:28.066Z,97131.28
2022-09-23T07:34:32.811Z,97129.41
2022-09-23T07:35:38.271Z,97127.41
2022-09-23T07:36:40.988Z,97126.31
2022-09-23T07:37:42.741Z,97115.63
2022-09-23T07:38:46.023Z,97122.09
2022-09-23T07:39:47.608Z,97114.81
2022-09-23T07:40:49.228Z,97120.31
2022-09-23T07:41:51.857Z,97117.03
2022-09-23T07:42:55.457Z,97114.94
2022-09-23T07:44:00.167Z,97117.50
2022-09-23T07:45:02.291Z,97115.31
2022-09-23T07:46:14.397Z,97113.97
2022-09-23T07:47:17.678Z,97105.50
2022-09-23T07:48:19.204Z,97118.13
2022-09-23T07:49:20.858Z,97118.22
2022-09-23T07:50:22.687Z,97117.13
2022-09-23T07:51:36.035Z,97119.16
2022-09-23T07:52:39.365Z,97113.13
2022-09-23T07:53:40.882Z,97110.41
2022-09-23T07:54:42.499Z,97107.09
2022-09-23T07:55:52.083Z,97114.22
2022-09-23T07:56:53.605Z,97108.03
2022-09-23T07:57:55.148Z,97109.00
2022-09-23T07:59:00.685Z,97118.41
2022-09-23T08:00:03.536Z,97111.56
2022-09-23T08:01:07.163Z,97110.91
2022-09-23T08:02:10.018Z,97108.72
2022-09-23T08:03:11.894Z,97110.13
2022-09-23T08:04:23.025Z,97107.88
2022-09-23T08:05:25.969Z,97110.41
2022-09-23T08:06:27.500Z,97106.09
2022-09-23T08:07:29.007Z,97113.16
2022-09-23T08:08:30.755Z,97110.63
2022-09-23T08:09:35.073Z,97110.81
2022-09-23T08:10:36.620Z,97110.03
2022-09-23T08:11:41.885Z,97112.97
2022-09-23T08:12:44.044Z,97100.25
2022-09-23T08:13:45.569Z,97096.84
2022-09-23T08:14:47.082Z,97099.44
2022-09-23T08:15:53.259Z,97101.19
2022-09-23T08:16:56.882Z,97107.25
2022-09-23T08:17:59.881Z,97093.78
2022-09-23T08:19:02.232Z,97087.50
2022-09-23T08:20:04.143Z,97092.34
2022-09-23T08:21:05.888Z,97094.00
2022-09-23T08:22:07.415Z,97084.03
2022-09-23T08:23:09.491Z,97082.25
2022-09-23T08:24:19.634Z,97091.63
2022-09-23T08:25:22.707Z,97089.84
2022-09-23T08:26:24.699Z,97086.47
2022-09-23T08:27:28.091Z,97083.59
2022-09-23T08:28:30.414Z,97086.09
2022-09-23T08:29:31.960Z,97084.69
2022-09-23T08:30:33.525Z,97088.53
2022-09-23T08:31:35.123Z,97080.34
2022-09-23T08:32:36.981Z,97082.59
2022-09-23T08:33:38.542Z,97087.47
2022-09-23T08:34:40.043Z,97084.75
2022-09-23T08:35:41.853Z,97078.16
2022-09-23T08:36:43.403Z,97077.81
2022-09-23T08:37:45.016Z,97070.63
2022-09-23T08:38:46.522Z,97075.75
2022-09-23T08:39:48.037Z,97076.06
2022-09-23T08:40:50.419Z,97083.47
2022-09-23T08:42:03.849Z,97073.75
2022-09-23T08:43:26.716Z,97072.34
2022-09-23T08:44:32.043Z,97068.88
2022-09-23T08:45:36.737Z,97066.25
2022-09-23T08:46:46.571Z,97069.22
2022-09-23T08:48:18.350Z,97065.00
2022-09-23T08:49:33.650Z,97066.09
2022-09-23T08:50:48.362Z,97063.56
2022-09-23T08:51:51.717Z,97064.06
2022-09-23T08:52:59.873Z,97054.53
2022-09-23T08:54:01.912Z,97058.47
2022-09-23T08:55:04.760Z,97063.94
2022-09-23T08:56:17.691Z,97050.78
2022-09-23T08:58:23.399Z,97057.03
2022-09-23T08:59:35.264Z,97057.97
2022-09-23T09:00:43.657Z,97057.31
2022-09-23T09:02:02.467Z,97056.28
2022-09-23T09:03:22.583Z,97055.09
2022-09-23T09:04:35.887Z,97047.44
2022-09-23T09:05:37.556Z,97045.22
2022-09-23T09:06:52.994Z,97045.22
2022-09-23T09:07:58.770Z,97044.13
2022-09-23T09:09:06.011Z,97046.88
2022-09-23T09:10:24.783Z,97038.47
2022-09-23T09:11:40.705Z,97043.03
2022-09-23T09:12:49.870Z,97032.19
2022-09-23T09:14:19.495Z,97042.75
2022-09-23T09:15:29.553Z,97039.63
2022-09-23T09:16:59.880Z,97040.00
2022-09-23T09:18:19.963Z,97040.84
2022-09-23T09:19:38.677Z,97038.59
2022-09-23T09:20:57.480Z,97034.78
2022-09-23T09:22:11.339Z,97040.94
2022-09-23T09:23:31.051Z,97042.00
2022-09-23T09:24:35.133Z,97038.19
2022-09-23T09:25:49.354Z,97040.94
2022-09-23T09:26:52.114Z,97029.38
2022-09-23T09:27:55.906Z,97039.44
2022-09-23T09:29:11.398Z,97033.22
2022-09-23T09:30:25.721Z,97037.94
2022-09-23T09:31:39.847Z,97040.22
2022-09-23T09:32:48.658Z,97038.28
2022-09-23T09:34:02.089Z,97050.66
2022-09-23T09:35:23.915Z,97039.78
2022-09-23T09:36:44.346Z,97049.50
2022-09-23T09:37:48.750Z,97034.81
2022-09-23T09:38:51.449Z,97037.94
2022-09-23T09:39:53.013Z,97040.22
2022-09-23T09:40:58.360Z,97035.50
2022-09-23T09:42:00.608Z,97034.31
2022-09-23T09:43:05.772Z,97046.34
2022-09-23T09:44:19.256Z,97044.81
2022-09-23T09:45:37.835Z,97042.53
2022-09-23T09:46:52.866Z,97043.38
2022-09-23T09:48:03.701Z,97037.88
2022-09-23T09:49:25.094Z,97037.81
2022-09-23T09:50:53.235Z,97042.50
2022-09-23T09:52:25.991Z,97034.38
2022-09-23T09:53:32.123Z,97033.25
2022-09-23T09:54:33.679Z,97034.88
2022-09-23T09:55:36.079Z,97036.09
2022-09-23T09:56:37.898Z,97033.47
2022-09-23T09:57:44.157Z,97038.50
2022-09-23T09:58:53.196Z,97039.69
2022-09-23T09:59:54.834Z,97046.59
2022-09-23T10:00:57.043Z,97041.63
2022-09-23T10:02:22.334Z,97026.53
2022-09-23T10:03:33.775Z,97038.97
2022-09-23T10:04:35.790Z,97034.34
2022-09-23T10:05:46.711Z,97024.22
2022-09-23T10:07:04.541Z,97025.88
2022-09-23T10:08:23.317Z,97036.38
2022-09-23T10:09:33.426Z,97034.84
2022-09-23T10:10:35.025Z,97029.41
2022-09-23T10:11:37.051Z,97021.28
2022-09-23T10:12:46.934Z,97027.91
2022-09-23T10:14:01.105Z,97026.75
2022-09-23T10:15:02.628Z,97022.88
2022-09-23T10:16:04.736Z,97032.59
2022-09-23T10:17:08.297Z,97022.09
2022-09-23T10:18:27.397Z,97019.28
2022-09-23T10:19:29.573Z,97014.97
2022-09-23T10:20:38.017Z,97022.00
2022-09-23T10:21:39.745Z,97014.97
2022-09-23T10:22:42.572Z,97019.59
2022-09-23T10:23:46.580Z,97010.31
2022-09-23T10:24:50.850Z,97016.81
2022-09-23T10:26:05.421Z,97012.81
2022-09-23T10:27:11.892Z,97015.44
2022-09-23T10:28:38.204Z,97005.34
2022-09-23T10:29:49.384Z,97008.34
2022-09-23T10:31:13.078Z,97009.03
2022-09-23T10:32:28.684Z,97006.00
2022-09-23T10:33:31.772Z,97006.06
2022-09-23T10:34:34.674Z,97004.91
2022-09-23T10:35:36.515Z,97003.00
2022-09-23T10:36:42.418Z,96996.09
2022-09-23T10:37:56.073Z,97005.13
2022-09-23T10:39:20.287Z,97006.31
2022-09-23T10:41:01.196Z,96998.06
2022-09-23T10:42:40.368Z,96991.44
2022-09-23T10:44:17.123Z,96990.69
2022-09-23T10:45:57.193Z,96993.84
2022-09-23T10:47:14.974Z,96980.25
2022-09-23T10:48:41.245Z,96987.56
2022-09-23T10:50:09.756Z,96983.72
2022-09-23T10:51:47.914Z,96974.50
2022-09-23T10:53:00.849Z,96973.63
2022-09-23T10:54:33.613Z,96976.78
2022-09-23T10:56:03.323Z,96975.56
2022-09-23T10:57:40.576Z,96975.50
2022-09-23T10:59:06.786Z,96966.50
2022-09-23T11:00:46.350Z,96969.66
2022-09-23T11:02:13.178Z,96954.19
2022-09-23T11:03:32.234Z,96954.16
2022-09-23T11:04:55.281Z,96956.06
2022-09-23T11:06:18.169Z,96955.28
2022-09-23T11:07:37.212Z,96951.00
2022-09-23T11:09:03.074Z,96951.03
2022-09-23T11:10:28.854Z,96954.06
2022-09-23T11:12:01.210Z,96942.50
2022-09-23T11:13:36.067Z,96954.47
2022-09-23T11:14:56.138Z,96933.94
2022-09-23T11:16:28.633Z,96944.06
2022-09-23T11:18:15.932Z,96943.34
2022-09-23T11:19:56.513Z,96929.00
2022-09-23T11:21:06.775Z,96931.31
2022-09-23T11:22:32.276Z,96927.88
2022-09-23T11:23:46.310Z,96928.69
2022-09-23T11:25:08.339Z,96934.56
2022-09-23T11:26:32.864Z,96928.34
2022-09-23T11:27:34.860Z,96924.81
2022-09-23T11:29:02.645Z,96931.03
2022-09-23T11:30:20.029Z,96937.22
2022-09-23T11:31:27.686Z,96934.03
2022-09-23T11:33:05.699Z,96929.41
2022-09-23T11:34:31.023Z,96926.28
2022-09-23T11:35:45.866Z,96924.75
2022-09-23T11:37:17.768Z,96918.53
2022-09-23T11:38:21.256Z,96925.53
2022-09-23T11:39:29.580Z,96917.34
2022-09-23T11:40:34.569Z,96919.22
2022-09-23T11:41:39.692Z,96905.34
2022-09-23T11:42:58.205Z,96910.84
2022-09-23T11:44:10.641Z,96912.41
2022-09-23T11:45:20.281Z,96914.34
2022-09-23T11:46:37.703Z,96913.19
2022-09-23T11:47:54.917Z,96910.91
2022-09-23T11:49:09.279Z,96912.50
2022-09-23T11:50:29.683Z,96900.06
2022-09-23T11:51:38.057Z,96904.66
2022-09-23T11:52:46.296Z,96907.34
2022-09-23T11:54:02.931Z,96910.47
2022-09-23T11:55:24.384Z,96901.56
2022-09-23T11:56:35.914Z,96913.22
2022-09-23T11:57:53.749Z,96908.56
2022-09-23T11:59:04.701Z,96905.44
2022-09-23T12:00:12.713Z,96897.66
2022-09-23T12:01:34.780Z,96907.75
2022-09-23T12:03:09.585Z,96893.06
2022-09-23T12:04:31.858Z,96889.94
2022-09-23T12:05:44.803Z,96889.16
2022-09-23T12:06:52.536Z,96896.09
2022-09-23T12:08:04.479Z,96890.63
2022-09-23T12:09:40.953Z,96899.94
2022-09-23T12:10:50.350Z,96893.41
2022-09-23T12:12:26.870Z,96898.81
2022-09-23T12:14:13.220Z,96903.50
2022-09-23T12:15:20.287Z,96900.00
2022-09-23T12:16:53.782Z,96892.66
2022-09-23T12:18:07.160Z,96900.78
2022-09-23T12:19:28.186Z,96898.50
2022-09-23T12:20:35.667Z,96902.41
2022-09-23T12:21:58.081Z,96900.09
2022-09-23T12:23:27.483Z,96900.09
2022-09-23T12:24:47.526Z,96900.09
2022-09-23T12:25:57.889Z,96895.44
2022-09-23T12:27:06.108Z,96898.53
2022-09-23T12:28:15.546Z,96897.38
2022-09-23T12:29:17.486Z,96893.88
2022-09-23T12:30:22.070Z,96893.09
2022-09-23T12:31:33.893Z,96894.63
2022-09-23T12:32:38.220Z,96896.97
2022-09-23T12:33:39.869Z,96900.78
2022-09-23T12:34:48.990Z,96886.84
2022-09-23T12:35:53.969Z,96884.53
2022-09-23T12:37:03.444Z,96872.88
2022-09-23T12:38:13.702Z,96892.28
2022-09-23T12:39:20.663Z,96899.59
2022-09-23T12:40:31.243Z,96894.56
2022-09-23T12:41:37.701Z,96890.34
2022-09-23T12:42:46.012Z,96892.28
2022-09-23T12:43:56.256Z,96895.41
2022-09-23T12:45:19.417Z,96890.00
2022-09-23T12:46:25.690Z,96890.78
2022-09-23T12:47:28.908Z,96892.28
2022-09-23T12:49:00.610Z,96883.34
2022-09-23T12:50:02.375Z,96886.84
2022-09-23T12:51:03.841Z,96877.56
2022-09-23T12:52:17.514Z,96881.44
2022-09-23T12:53:34.360Z,96879.50
2022-09-23T12:54:36.089Z,96883.78
2022-09-23T12:55:41.723Z,96886.09
2022-09-23T12:56:55.932Z,96879.88
2022-09-23T12:57:57.467Z,96865.91
2022-09-23T12:59:01.713Z,96874.44
2022-09-23T13:00:18.166Z,96880.66
2022-09-23T13:01:25.286Z,96886.13
2022-09-23T13:02:31.601Z,96883.00
2022-09-23T13:03:51.835Z,96879.13
2022-09-23T13:05:44.755Z,96884.56
2022-09-23T13:07:05.164Z,96892.31
2022-09-23T13:08:15.878Z,96893.09
2022-09-23T13:09:24.843Z,96891.91
2022-09-23T13:10:32.853Z,96877.94
2022-09-23T13:11:40.359Z,96891.19
2022-09-23T13:12:43.636Z,96888.84
2022-09-23T13:13:46.224Z,96886.91
2022-09-23T13:14:52.123Z,96891.56
2022-09-23T13:15:55.002Z,96891.56
2022-09-23T13:16:58.540Z,96888.09
2022-09-23T13:18:18.954Z,96891.56
2022-09-23T13:19:26.449Z,96881.81
2022-09-23T13:20:38.410Z,96889.19
2022-09-23T13:21:42.621Z,96884.50
2022-09-23T13:22:51.750Z,96891.13
2022-09-23T13:24:28.323Z,96889.91
2022-09-23T13:25:33.434Z,96883.31
2022-09-23T13:26:36.699Z,96891.81
2022-09-23T13:27:41.384Z,96884.88
2022-09-23T13:28:58.730Z,96889.19